createdAt,value
2022-10-01T00:00:04.800Z,11.30
2022-10-01T00:02:31.135Z,16.00
2022-10-01T00:04:57.553Z,9.27
2022-10-01T00:07:24.111Z,13.40
2022-10-01T00:09:50.616Z,12.17
2022-10-01T00:12:16.902Z,12.53
2022-10-01T00:14:44.965Z,17.00
2022-10-01T00:17:11.298Z,13.50
2022-10-01T00:19:37.590Z,13.00
2022-10-01T00:22:04.155Z,16.70
2022-10-01T00:24:30.461Z,19.57
2022-10-01T00:26:57.611Z,17.77
2022-10-01T00:29:24.075Z,17.70
2022-10-01T00:31:50.463Z,14.70
2022-10-01T00:34:16.855Z,17.17
2022-10-01T00:36:43.236Z,19.00
2022-10-01T00:39:11.705Z,22.33
2022-10-01T00:41:38.599Z,21.93
2022-10-01T00:44:28.701Z,17.77
2022-10-01T00:46:58.944Z,20.43
2022-10-01T00:49:29.093Z,27.30
2022-10-01T00:52:03.293Z,26.10
2022-10-01T00:54:34.074Z,26.50
2022-10-01T00:57:02.621Z,39.00
2022-10-01T00:59:29.945Z,39.07
2022-10-01T01:01:56.707Z,21.83
2022-10-01T01:04:23.422Z,25.30
2022-10-01T01:06:59.089Z,27.90
2022-10-01T01:09:33.221Z,22.20
2022-10-01T01:12:27.566Z,31.13
2022-10-01T01:15:04.661Z,24.00
2022-10-01T01:17:40.333Z,29.20
2022-10-01T01:20:09.400Z,19.57
2022-10-01T01:22:42.813Z,16.50
2022-10-01T01:25:18.849Z,25.80
2022-10-01T01:28:23.088Z,17.03
2022-10-01T01:30:56.845Z,20.90
2022-10-01T01:33:26.687Z,18.40
2022-10-01T01:35:58.469Z,20.57
2022-10-01T01:38:30.058Z,16.63
2022-10-01T01:41:00.314Z,16.70
2022-10-01T01:43:33.009Z,13.60
2022-10-01T01:46:02.271Z,15.67
2022-10-01T01:48:31.057Z,13.53
2022-10-01T01:51:04.518Z,13.80
2022-10-01T01:53:32.294Z,17.17
2022-10-01T01:56:00.343Z,15.70
2022-10-01T01:58:28.111Z,16.70
2022-10-01T02:00:54.782Z,19.17
2022-10-01T02:03:24.920Z,17.33
2022-10-01T02:06:09.057Z,16.70
2022-10-01T02:08:47.787Z,21.13
2022-10-01T02:11:23.562Z,23.03
2022-10-01T02:14:06.639Z,22.90
2022-10-01T02:16:51.688Z,16.00
2022-10-01T02:19:45.516Z,17.67
2022-10-01T02:22:18.707Z,26.20
2022-10-01T02:25:01.829Z,27.33
2022-10-01T02:27:46.776Z,23.27
2022-10-01T02:30:13.957Z,25.80
2022-10-01T02:32:44.109Z,27.30
2022-10-01T02:35:15.451Z,23.87
2022-10-01T02:37:44.692Z,32.23
2022-10-01T02:40:16.082Z,19.43
2022-10-01T02:42:50.271Z,22.23
2022-10-01T02:45:24.018Z,25.73
2022-10-01T02:47:57.638Z,23.83
2022-10-01T02:50:31.528Z,22.77
2022-10-01T02:53:18.947Z,19.33
2022-10-01T02:55:48.088Z,21.00
2022-10-01T02:58:14.530Z,21.90
2022-10-01T03:00:40.822Z,21.53
2022-10-01T03:03:07.182Z,21.07
2022-10-01T03:05:33.481Z,19.43
2022-10-01T03:07:59.969Z,23.03
2022-10-01T03:10:26.261Z,22.60
2022-10-01T03:12:52.561Z,18.13
2022-10-01T03:15:19.426Z,21.93
2022-10-01T03:17:46.447Z,20.43
2022-10-01T03:20:12.913Z,21.47
2022-10-01T03:22:39.207Z,26.30
2022-10-01T03:25:05.797Z,23.57
2022-10-01T03:27:32.162Z,17.90
2022-10-01T03:29:58.470Z,21.23
2022-10-01T03:32:24.760Z,25.30
2022-10-01T03:34:51.090Z,22.00
2022-10-01T03:37:17.398Z,20.70
2022-10-01T03:39:43.715Z,22.03
2022-10-01T03:42:11.201Z,23.50
2022-10-01T03:44:37.496Z,24.67
2022-10-01T03:47:03.895Z,22.40
2022-10-01T03:49:30.189Z,24.07
2022-10-01T03:51:56.490Z,24.47
2022-10-01T03:54:22.821Z,23.83
2022-10-01T03:56:49.170Z,27.70
2022-10-01T03:59:15.497Z,26.53
2022-10-01T04:01:41.884Z,22.53
2022-10-01T04:04:09.197Z,25.93
2022-10-01T04:06:35.696Z,20.67
2022-10-01T04:09:02.091Z,19.17
2022-10-01T04:11:28.555Z,27.20
2022-10-01T04:13:55.169Z,23.03
2022-10-01T04:16:21.523Z,23.17
2022-10-01T04:18:48.159Z,29.70
2022-10-01T04:21:15.457Z,24.20
2022-10-01T04:23:42.099Z,25.70
2022-10-01T04:26:09.133Z,24.43
2022-10-01T04:28:36.100Z,29.00
2022-10-01T04:31:21.179Z,28.07
2022-10-01T04:33:47.603Z,28.93
2022-10-01T04:36:14.262Z,31.57
2022-10-01T04:38:40.624Z,27.20
2022-10-01T04:41:07.014Z,28.23
2022-10-01T04:43:33.334Z,26.87
2022-10-01T04:45:59.631Z,31.10
2022-10-01T04:48:25.961Z,30.57
2022-10-01T04:50:52.974Z,27.27
2022-10-01T04:53:19.299Z,26.60
2022-10-01T04:55:46.718Z,25.27
2022-10-01T04:58:13.085Z,21.67
2022-10-01T05:00:39.504Z,32.57
2022-10-01T05:03:05.923Z,28.17
2022-10-01T05:05:32.957Z,33.97
2022-10-01T05:07:59.300Z,30.50
2022-10-01T05:10:26.233Z,32.60
2022-10-01T05:12:52.587Z,25.83
2022-10-01T05:15:19.732Z,26.20
2022-10-01T05:17:46.695Z,29.70
2022-10-01T05:20:21.457Z,29.60
2022-10-01T05:22:49.329Z,28.60
2022-10-01T05:25:16.510Z,27.30
2022-10-01T05:27:42.888Z,29.10
2022-10-01T05:30:11.548Z,28.80
2022-10-01T05:32:37.985Z,25.90
2022-10-01T05:35:07.020Z,22.53
2022-10-01T05:37:34.293Z,22.47
2022-10-01T05:40:01.576Z,23.13
2022-10-01T05:42:27.923Z,22.00
2022-10-01T05:44:54.464Z,25.37
2022-10-01T05:47:21.074Z,26.40
2022-10-01T05:49:47.425Z,25.40
2022-10-01T05:52:15.493Z,30.13
2022-10-01T05:54:41.791Z,21.53
2022-10-01T05:57:08.654Z,20.80
2022-10-01T05:59:35.457Z,19.90
2022-10-01T06:02:03.790Z,20.00
2022-10-01T06:04:30.321Z,19.17
2022-10-01T06:06:56.678Z,19.80
2022-10-01T06:09:23.027Z,15.40
2022-10-01T06:11:49.796Z,20.50
2022-10-01T06:14:16.547Z,16.27
2022-10-01T06:16:43.011Z,16.30
2022-10-01T06:19:09.581Z,10.67
2022-10-01T06:21:36.297Z,11.60
2022-10-01T06:24:02.955Z,14.73
2022-10-01T06:26:29.458Z,11.10
2022-10-01T06:28:56.532Z,21.50
2022-10-01T06:31:23.197Z,15.50
2022-10-01T06:33:49.622Z,11.83
2022-10-01T06:36:15.976Z,9.40
2022-10-01T06:38:43.127Z,10.40
2022-10-01T06:41:09.786Z,15.47
2022-10-01T06:43:36.387Z,14.77
2022-10-01T06:46:04.689Z,10.90
2022-10-01T06:48:32.418Z,9.77
2022-10-01T06:50:59.377Z,12.70
2022-10-01T06:53:27.589Z,11.50
2022-10-01T06:55:54.491Z,11.00
2022-10-01T06:58:22.713Z,8.53
2022-10-01T07:00:50.227Z,11.60
2022-10-01T07:03:21.657Z,13.63
2022-10-01T07:05:50.079Z,12.00
2022-10-01T07:08:16.562Z,10.70
2022-10-01T07:10:44.138Z,10.37
2022-10-01T07:13:16.600Z,15.93
2022-10-01T07:15:43.673Z,10.70
2022-10-01T07:18:10.173Z,10.00
2022-10-01T07:20:39.759Z,9.60
2022-10-01T07:23:08.562Z,14.70
2022-10-01T07:25:34.871Z,14.23
2022-10-01T07:28:04.451Z,10.40
2022-10-01T07:30:31.908Z,12.17
2022-10-01T07:32:58.621Z,11.00
2022-10-01T07:35:26.398Z,11.07
2022-10-01T07:37:55.100Z,14.90
2022-10-01T07:40:21.832Z,11.00
2022-10-01T07:42:56.153Z,9.70
2022-10-01T07:45:23.383Z,9.80
2022-10-01T07:47:58.459Z,12.33
2022-10-01T07:50:30.412Z,7.00
2022-10-01T07:52:58.525Z,9.93
2022-10-01T07:55:26.948Z,7.13
2022-10-01T07:57:55.297Z,12.83
2022-10-01T08:00:23.401Z,9.67
2022-10-01T08:02:51.215Z,6.73
2022-10-01T08:05:19.027Z,5.50
2022-10-01T08:07:46.868Z,7.17
2022-10-01T08:10:13.931Z,10.10
2022-10-01T08:12:42.610Z,6.43
2022-10-01T08:15:11.223Z,4.40
2022-10-01T08:17:38.785Z,4.70
2022-10-01T08:20:07.495Z,4.27
2022-10-01T08:22:35.759Z,7.47
2022-10-01T08:25:05.934Z,3.77
2022-10-01T08:27:32.535Z,4.10
2022-10-01T08:29:58.867Z,4.80
2022-10-01T08:32:26.084Z,4.70
2022-10-01T08:34:56.712Z,4.10
2022-10-01T08:37:28.153Z,5.60
2022-10-01T08:39:56.111Z,4.27
2022-10-01T08:42:41.294Z,5.53
2022-10-01T08:45:20.163Z,4.00
2022-10-01T08:48:22.797Z,3.10
2022-10-01T08:50:54.326Z,4.10
2022-10-01T08:53:32.660Z,5.97
2022-10-01T08:56:01.284Z,3.50
2022-10-01T08:58:46.391Z,4.57
2022-10-01T09:01:12.751Z,7.13
2022-10-01T09:03:39.911Z,3.77
2022-10-01T09:06:22.243Z,5.00
2022-10-01T09:08:55.880Z,4.00
2022-10-01T09:11:42.153Z,3.80
2022-10-01T09:14:11.525Z,4.80
2022-10-01T09:16:52.530Z,3.57
2022-10-01T09:19:50.427Z,4.50
2022-10-01T09:22:29.576Z,4.70
2022-10-01T09:25:27.290Z,4.20
2022-10-01T09:28:15.426Z,2.20
2022-10-01T09:30:49.847Z,3.63
2022-10-01T09:33:20.245Z,5.30
2022-10-01T09:35:48.880Z,3.43
2022-10-01T09:38:15.124Z,4.07
2022-10-01T09:40:53.301Z,17.00
2022-10-01T09:43:21.800Z,3.50
2022-10-01T09:45:48.139Z,5.83
2022-10-01T09:48:54.459Z,2.97
2022-10-01T09:51:33.987Z,6.17
2022-10-01T09:54:20.633Z,4.40
2022-10-01T09:57:09.623Z,4.10
2022-10-01T10:00:06.409Z,5.70
2022-10-01T10:02:49.322Z,6.07
2022-10-01T10:05:21.689Z,2.87
2022-10-01T10:08:17.117Z,4.27
2022-10-01T10:10:58.307Z,3.33
2022-10-01T10:13:39.076Z,2.37
2022-10-01T10:16:17.243Z,3.33
2022-10-01T10:18:52.455Z,5.93
2022-10-01T10:21:27.605Z,5.13
2022-10-01T10:24:02.736Z,3.00
2022-10-01T10:26:40.989Z,1.70
2022-10-01T10:29:26.613Z,2.30
2022-10-01T10:31:55.578Z,2.50
2022-10-01T10:34:39.240Z,2.27
2022-10-01T10:37:17.967Z,1.73
2022-10-01T10:39:56.444Z,2.90
2022-10-01T10:42:25.786Z,3.43
2022-10-01T10:44:55.928Z,3.23
2022-10-01T10:47:24.223Z,1.67
2022-10-01T10:49:52.739Z,3.80
2022-10-01T10:52:33.130Z,2.50
2022-10-01T10:55:25.933Z,1.87
2022-10-01T10:57:57.304Z,2.37
2022-10-01T11:00:31.616Z,8.00
2022-10-01T11:03:01.422Z,2.90
2022-10-01T11:05:31.908Z,3.70
2022-10-01T11:08:01.095Z,2.73
2022-10-01T11:11:02.810Z,4.90
2022-10-01T11:14:00.247Z,2.67
2022-10-01T11:17:05.782Z,2.73
2022-10-01T11:19:55.637Z,2.40
2022-10-01T11:22:36.461Z,6.33
2022-10-01T11:25:17.551Z,2.30
2022-10-01T11:28:10.445Z,2.70
2022-10-01T11:30:54.029Z,4.30
2022-10-01T11:33:30.582Z,2.33
2022-10-01T11:36:22.617Z,3.43
2022-10-01T11:39:05.474Z,7.30
2022-10-01T11:41:43.523Z,4.30
2022-10-01T11:44:21.985Z,6.57
2022-10-01T11:47:00.261Z,3.43
2022-10-01T11:49:41.902Z,3.33
2022-10-01T11:52:18.656Z,2.63
2022-10-01T11:54:58.734Z,4.83
2022-10-01T11:57:45.919Z,1.90
2022-10-01T12:00:14.269Z,2.73
2022-10-01T12:02:50.105Z,2.50
2022-10-01T12:05:28.190Z,4.97
2022-10-01T12:08:11.375Z,3.60
2022-10-01T12:11:00.265Z,3.70
2022-10-01T12:13:42.300Z,3.63
2022-10-01T12:16:18.701Z,2.33
2022-10-01T12:18:52.121Z,3.73
2022-10-01T12:21:33.267Z,1.40
2022-10-01T12:24:05.504Z,3.17
2022-10-01T12:27:00.408Z,2.03
2022-10-01T12:29:39.737Z,2.57
2022-10-01T12:32:17.178Z,4.10
2022-10-01T12:35:21.255Z,2.70
2022-10-01T12:38:06.262Z,5.13
2022-10-01T12:40:51.413Z,4.53
2022-10-01T12:43:27.726Z,2.40
2022-10-01T12:46:05.212Z,4.40
2022-10-01T12:48:42.728Z,2.60
2022-10-01T12:51:30.545Z,5.33
2022-10-01T12:54:07.824Z,2.40
2022-10-01T12:56:58.289Z,3.37
2022-10-01T12:59:24.860Z,8.30
2022-10-01T13:02:07.985Z,3.40
2022-10-01T13:04:56.563Z,3.83
2022-10-01T13:07:29.695Z,1.87
2022-10-01T13:10:05.258Z,4.47
2022-10-01T13:12:56.432Z,5.90
2022-10-01T13:15:34.861Z,2.50
2022-10-01T13:18:13.509Z,3.27
2022-10-01T13:20:54.070Z,3.70
2022-10-01T13:23:41.016Z,4.53
2022-10-01T13:26:17.910Z,2.47
2022-10-01T13:29:08.560Z,6.27
2022-10-01T13:31:39.587Z,2.50
2022-10-01T13:34:26.096Z,5.13
2022-10-01T13:36:52.440Z,5.33
2022-10-01T13:39:24.009Z,1.97
2022-10-01T13:41:57.162Z,3.10
2022-10-01T13:44:32.000Z,5.80
2022-10-01T13:47:06.064Z,3.00
2022-10-01T13:49:34.777Z,3.23
2022-10-01T13:52:06.060Z,3.80
2022-10-01T13:54:47.358Z,4.07
2022-10-01T13:57:29.156Z,5.07
2022-10-01T14:00:01.779Z,3.47
2022-10-01T14:02:34.683Z,2.03
2022-10-01T14:05:13.284Z,5.43
2022-10-01T14:07:39.910Z,4.10
2022-10-01T14:10:10.922Z,2.40
2022-10-01T14:12:59.868Z,2.93
2022-10-01T14:16:02.620Z,2.80
2022-10-01T14:18:42.791Z,2.30
2022-10-01T14:21:48.029Z,3.30
2022-10-01T14:24:46.122Z,1.57
2022-10-01T14:27:47.769Z,1.73
2022-10-01T14:30:22.754Z,2.67
2022-10-01T14:33:29.874Z,3.10
2022-10-01T14:36:15.423Z,5.37
2022-10-01T14:38:42.189Z,2.20
2022-10-01T14:41:20.236Z,2.60
2022-10-01T14:43:46.798Z,3.40
2022-10-01T14:46:17.789Z,2.27
2022-10-01T14:48:44.672Z,1.63
2022-10-01T14:51:24.694Z,1.90
2022-10-01T14:53:52.311Z,2.33
2022-10-01T14:56:20.099Z,1.53
2022-10-01T14:58:52.531Z,5.43
2022-10-01T15:01:23.652Z,2.70
2022-10-01T15:03:51.714Z,3.20
2022-10-01T15:06:27.939Z,1.13
2022-10-01T15:08:57.278Z,3.10
2022-10-01T15:11:33.815Z,1.57
2022-10-01T15:14:06.411Z,8.53
2022-10-01T15:16:35.048Z,2.80
2022-10-01T15:19:07.025Z,1.50
2022-10-01T15:21:40.878Z,1.63
2022-10-01T15:24:16.355Z,2.33
2022-10-01T15:26:46.132Z,2.10
2022-10-01T15:29:14.590Z,1.23
2022-10-01T15:31:41.518Z,1.40
2022-10-01T15:34:12.888Z,3.40
2022-10-01T15:36:40.914Z,1.33
2022-10-01T15:39:34.958Z,1.10
2022-10-01T15:42:18.439Z,1.00
2022-10-01T15:44:46.796Z,2.07
2022-10-01T15:47:33.164Z,2.23
2022-10-01T15:50:17.101Z,1.53
2022-10-01T15:52:53.415Z,1.30
2022-10-01T15:55:25.858Z,1.67
2022-10-01T15:58:04.452Z,1.50
2022-10-01T16:00:37.767Z,1.30
2022-10-01T16:03:04.213Z,1.20
2022-10-01T16:05:45.916Z,1.50
2022-10-01T16:08:21.519Z,1.30
2022-10-01T16:11:09.323Z,2.60
2022-10-01T16:13:44.717Z,1.97
2022-10-01T16:16:11.154Z,1.43
2022-10-01T16:18:37.485Z,1.87
2022-10-01T16:21:05.989Z,1.10
2022-10-01T16:23:43.811Z,1.27
2022-10-01T16:26:40.155Z,1.20
2022-10-01T16:29:23.884Z,1.87
2022-10-01T16:31:50.547Z,1.33
2022-10-01T16:34:19.735Z,1.83
2022-10-01T16:36:46.464Z,1.67
2022-10-01T16:39:14.975Z,1.13
2022-10-01T16:41:44.613Z,1.67
2022-10-01T16:44:13.770Z,2.93
2022-10-01T16:46:41.213Z,1.70
2022-10-01T16:49:13.967Z,1.60
2022-10-01T16:51:40.996Z,1.30
2022-10-01T16:54:19.309Z,1.70
2022-10-01T16:56:45.614Z,1.20
2022-10-01T16:59:12.570Z,1.93
2022-10-01T17:01:39.028Z,2.30
2022-10-01T17:04:05.337Z,1.63
2022-10-01T17:06:31.856Z,2.00
2022-10-01T17:08:58.482Z,7.93
2022-10-01T17:11:26.849Z,2.97
2022-10-01T17:13:53.133Z,1.33
2022-10-01T17:16:24.419Z,0.80
2022-10-01T17:18:50.977Z,1.10
2022-10-01T17:21:17.311Z,1.00
2022-10-01T17:23:43.634Z,1.20
2022-10-01T17:26:10.218Z,2.17
2022-10-01T17:28:36.605Z,1.87
2022-10-01T17:31:06.917Z,1.10
2022-10-01T17:33:33.666Z,1.10
2022-10-01T17:36:00.199Z,1.00
2022-10-01T17:38:26.568Z,1.00
2022-10-01T17:40:56.706Z,1.33
2022-10-01T17:43:23.501Z,1.30
2022-10-01T17:45:55.996Z,1.00
2022-10-01T17:48:30.870Z,1.47
2022-10-01T17:51:07.480Z,1.00
2022-10-01T17:53:41.829Z,0.80
2022-10-01T17:56:14.432Z,1.00
2022-10-01T17:58:46.504Z,1.00
2022-10-01T18:01:22.248Z,1.20
2022-10-01T18:03:55.399Z,1.10
2022-10-01T18:06:27.533Z,1.30
2022-10-01T18:08:56.229Z,1.10
2022-10-01T18:11:29.449Z,1.47
2022-10-01T18:13:57.326Z,1.67
2022-10-01T18:16:24.216Z,1.00
2022-10-01T18:21:45.459Z,1.13
2022-10-01T18:24:11.919Z,1.20
2022-10-01T18:26:39.804Z,4.20
2022-10-01T18:29:06.214Z,1.60
2022-10-01T18:31:40.732Z,2.00
2022-10-01T18:34:18.219Z,1.17
2022-10-01T18:36:53.972Z,1.23
2022-10-01T18:39:44.389Z,1.00
2022-10-01T18:42:19.107Z,3.53
2022-10-01T18:44:50.582Z,1.43
2022-10-01T18:47:33.688Z,1.73
2022-10-01T18:50:25.336Z,2.13
2022-10-01T18:53:06.929Z,2.33
2022-10-01T18:55:55.219Z,3.17
2022-10-01T18:58:59.404Z,2.83
2022-10-01T19:01:53.962Z,4.27
2022-10-01T19:04:57.650Z,2.20
2022-10-01T19:07:56.388Z,2.00
2022-10-01T19:10:59.298Z,2.10
2022-10-01T19:13:34.989Z,2.73
2022-10-01T19:16:46.579Z,1.80
2022-10-01T19:19:31.672Z,2.10
2022-10-01T19:22:11.675Z,2.17
2022-10-01T19:25:05.386Z,1.30
2022-10-01T19:27:46.972Z,1.80
2022-10-01T19:30:16.372Z,1.10
2022-10-01T19:33:11.669Z,1.37
2022-10-01T19:35:42.265Z,1.63
2022-10-01T19:38:29.647Z,0.87
2022-10-01T19:41:02.727Z,1.30
2022-10-01T19:43:28.982Z,1.67
2022-10-01T19:46:05.861Z,3.10
2022-10-01T19:48:56.935Z,0.93
2022-10-01T19:51:29.200Z,2.33
2022-10-01T19:54:00.836Z,1.73
2022-10-01T19:56:29.917Z,1.80
2022-10-01T19:59:04.204Z,1.63
2022-10-01T20:01:38.837Z,1.30
2022-10-01T20:04:14.519Z,4.17
2022-10-01T20:06:46.334Z,2.20
2022-10-01T20:09:41.417Z,1.93
2022-10-01T20:12:19.996Z,2.03
2022-10-01T20:15:08.200Z,1.60
2022-10-01T20:17:49.987Z,2.43
2022-10-01T20:20:48.592Z,1.60
2022-10-01T20:23:27.263Z,2.30
2022-10-01T20:26:14.395Z,1.67
2022-10-01T20:29:25.444Z,2.83
2022-10-01T20:31:52.364Z,1.70
2022-10-01T20:34:29.767Z,4.30
2022-10-01T20:37:34.760Z,1.67
2022-10-01T20:40:25.027Z,3.03
2022-10-01T20:43:00.585Z,2.07
2022-10-01T20:45:29.893Z,2.83
2022-10-01T20:48:04.023Z,4.37
2022-10-01T20:50:37.283Z,2.00
2022-10-01T20:53:14.383Z,2.47
2022-10-01T20:55:50.608Z,2.10
2022-10-01T20:58:25.057Z,2.90
2022-10-01T21:00:59.409Z,2.13
2022-10-01T21:03:40.658Z,2.70
2022-10-01T21:06:14.956Z,1.77
2022-10-01T21:08:53.435Z,2.47
2022-10-01T21:11:28.989Z,2.23
2022-10-01T21:14:04.041Z,3.00
2022-10-01T21:16:44.568Z,1.90
2022-10-01T21:19:43.669Z,4.40
2022-10-01T21:22:59.041Z,2.60
2022-10-01T21:25:43.014Z,2.17
2022-10-01T21:28:43.234Z,4.37
2022-10-01T21:31:12.532Z,2.17
2022-10-01T21:33:45.747Z,3.23
2022-10-01T21:36:43.994Z,3.53
2022-10-01T21:39:33.274Z,2.60
2022-10-01T21:42:02.600Z,1.80
2022-10-01T21:44:40.146Z,1.90
2022-10-01T21:47:15.754Z,4.40
2022-10-01T21:50:19.119Z,2.43
2022-10-01T21:52:54.142Z,2.10
2022-10-01T21:55:40.216Z,2.83
2022-10-01T21:58:23.675Z,3.47
2022-10-01T22:01:16.121Z,2.43
2022-10-01T22:03:53.069Z,1.50
2022-10-01T22:06:25.881Z,1.90
2022-10-01T22:09:27.795Z,2.87
2022-10-01T22:12:00.285Z,3.47
2022-10-01T22:14:27.896Z,5.00
2022-10-01T22:17:01.240Z,2.10
2022-10-01T22:19:29.992Z,2.63
2022-10-01T22:22:04.567Z,2.73
2022-10-01T22:24:41.106Z,2.87
2022-10-01T22:27:13.354Z,1.90
2022-10-01T22:29:48.906Z,1.93
2022-10-01T22:32:20.388Z,2.67
2022-10-01T22:34:55.627Z,2.00
2022-10-01T22:37:28.375Z,3.10
2022-10-01T22:40:02.980Z,3.07
2022-10-01T22:42:35.342Z,1.53
2022-10-01T22:45:12.111Z,2.03
2022-10-01T22:48:06.652Z,1.87
2022-10-01T22:50:48.211Z,2.77
2022-10-01T22:53:29.641Z,2.83
2022-10-01T22:55:57.369Z,3.90
2022-10-01T22:58:51.973Z,5.23
2022-10-01T23:01:27.641Z,5.87
2022-10-01T23:04:09.307Z,4.70
2022-10-01T23:07:00.527Z,5.03
2022-10-01T23:09:30.539Z,7.17
2022-10-01T23:12:00.519Z,3.83
2022-10-01T23:14:45.437Z,3.60
2022-10-01T23:17:26.106Z,3.67
2022-10-01T23:20:03.377Z,2.40
2022-10-01T23:22:48.254Z,4.80
2022-10-01T23:25:45.999Z,4.90
2022-10-01T23:28:54.544Z,2.70
2022-10-01T23:31:44.480Z,3.97
2022-10-01T23:34:32.450Z,2.83
2022-10-01T23:37:21.467Z,5.57
2022-10-01T23:40:03.962Z,6.27
2022-10-01T23:42:36.899Z,2.77
2022-10-01T23:45:19.615Z,3.40
2022-10-01T23:47:59.073Z,6.63
2022-10-01T23:51:00.993Z,2.60
2022-10-01T23:53:45.961Z,2.70
2022-10-01T23:56:38.093Z,2.80
2022-10-01T23:59:15.682Z,2.30
